Maersk Bali — 9V7499 — position and weather

sailwx.info

Track history (hours):
 
Tides and Currents Weather Stations Pressure Air Temp Water Temp Dewpoint Dewpoint Depression Visibility Wind Speed Wind Dir Waves Ship Positions

Maersk Bali

Last reported at 2014-Dec-19 13:20 UTC. Time now 2014-Dec-19 14:25 UTC.
Position N 41°30' E 029°29'.

Length 223 m; draft 9.6 m.

Type: Cargo ship. MMSI: 563102000.

Date/timePositionNaut miles runAvg speedWind from/ knotsBaromVisibWave heightAir tempDewpointWater temp
2014-Dec-19 13:20N 41°30' E 029°29'28210.9
2014-Dec-18 11:24N 43°37' E 035°11'1011.4
2014-Dec-18 10:33N 43°41' E 035°23'1111.5
2014-Dec-18 09:33N 43°47' E 035°37'1111.4
2014-Dec-18 08:33N 43°52' E 035°51'1111.3
2014-Dec-18 07:33N 43°57' E 036°05'1111.5
2014-Dec-18 06:33N 44°02' E 036°19'1211.5
2014-Dec-18 05:28N 44°08' E 036°35'3411.5
2014-Dec-18 02:32N 44°23' E 037°16'1212.1
2014-Dec-18 01:33N 44°28' E 037°31'1211.9
2014-Dec-18 00:33N 44°35' E 037°45'8 7.7
2014-Dec-17 23:33N 44°42' E 037°49'1 1.1
2014-Dec-17 22:32N 44°43' E 037°49'0 0.0
2014-Dec-17 21:32N 44°43' E 037°49'0 0.0
2014-Dec-17 20:32N 44°43' E 037°49'0 0.0
2014-Dec-17 19:32N 44°43' E 037°49'0 0.0
2014-Dec-17 18:32N 44°43' E 037°49'0 0.0
2014-Dec-17 17:32N 44°43' E 037°49'0 0.0
2014-Dec-17 16:32N 44°43' E 037°49'0 0.0
2014-Dec-17 15:32N 44°43' E 037°49'0 0.0
2014-Dec-17 14:32N 44°43' E 037°49'0 0.0
2014-Dec-17 13:32N 44°43' E 037°49'0 0.0
2014-Dec-17 12:29N 44°43' E 037°49'0 0.0
2014-Dec-17 11:32N 44°43' E 037°49'0 0.0
2014-Dec-17 10:32N 44°43' E 037°49'0 0.0
2014-Dec-17 09:32N 44°43' E 037°49'0 0.0
2014-Dec-17 08:32N 44°43' E 037°49'0 0.0
2014-Dec-17 07:26N 44°43' E 037°49'0 0.0
2014-Dec-17 06:32N 44°43' E 037°49'0 0.0
2014-Dec-17 05:32N 44°43' E 037°49'0 0.0
2014-Dec-17 04:32N 44°43' E 037°49'0 0.0
2014-Dec-17 03:32N 44°43' E 037°49'0 0.0
2014-Dec-17 02:32N 44°43' E 037°49'0 0.0
2014-Dec-17 01:32N 44°43' E 037°49'0 0.0
2014-Dec-17 00:32N 44°43' E 037°49'0 0.0
2014-Dec-16 23:32N 44°43' E 037°49'0 0.0
2014-Dec-16 22:32N 44°43' E 037°49'0 0.0
2014-Dec-16 21:32N 44°43' E 037°49'0 0.0
2014-Dec-16 20:32N 44°43' E 037°49'0 0.0
2014-Dec-16 19:32N 44°43' E 037°49'0 0.0
2014-Dec-16 18:32N 44°43' E 037°49'0 0.0
2014-Dec-16 17:32N 44°43' E 037°49'0 0.0
2014-Dec-16 16:32N 44°43' E 037°49'0 0.0
2014-Dec-16 15:32N 44°43' E 037°49'0 0.0
2014-Dec-16 14:32N 44°43' E 037°49'0 0.0
2014-Dec-16 13:32N 44°43' E 037°49'0 0.5
2014-Dec-16 12:33N 44°43' E 037°48'7 7.1
2014-Dec-16 11:33N 44°36' E 037°52'7 7.0
2014-Dec-16 10:33N 44°31' E 037°47'1110.7
2014-Dec-16 09:33N 44°26' E 037°33'1514.9
2014-Dec-16 08:33N 44°19' E 037°15'10010.6
2014-Dec-15 23:08N 44°16' E 034°55'710.9
2014-Dec-15 22:31N 44°15' E 034°45'1010.9
2014-Dec-15 21:33N 44°15' E 034°31'1010.2
2014-Dec-15 20:33N 44°15' E 034°16'1010.0
2014-Dec-15 19:33N 44°15' E 034°02'190 4.9
2014-Dec-14 04:32N 46°36' E 031°01'9 9.4
2014-Dec-14 03:33N 46°27' E 030°57'1615.3
2014-Dec-14 02:30N 46°12' E 031°05'  
Track history (hours):
 
Tides and Currents Weather Stations Pressure Air Temp Water Temp Dewpoint Dewpoint Depression Visibility Wind Speed Wind Dir Waves Ship Positions

Maersk Bali

Last reported at 2014-Dec-19 13:20 UTC. Time now 2014-Dec-19 14:25 UTC.
Position N 41°30' E 029°29'.

Length 223 m; draft 9.6 m.

Type: Cargo ship. MMSI: 563102000.

Date/timePositionNaut miles runAvg speedWind from/ knotsBaromVisibWave heightAir tempDewpointWater temp
2014-Dec-19 13:20N 41°30' E 029°29'28210.9
2014-Dec-18 11:24N 43°37' E 035°11'1011.4
2014-Dec-18 10:33N 43°41' E 035°23'1111.5
2014-Dec-18 09:33N 43°47' E 035°37'1111.4
2014-Dec-18 08:33N 43°52' E 035°51'1111.3
2014-Dec-18 07:33N 43°57' E 036°05'1111.5
2014-Dec-18 06:33N 44°02' E 036°19'1211.5
2014-Dec-18 05:28N 44°08' E 036°35'3411.5
2014-Dec-18 02:32N 44°23' E 037°16'1212.1
2014-Dec-18 01:33N 44°28' E 037°31'1211.9
2014-Dec-18 00:33N 44°35' E 037°45'8 7.7
2014-Dec-17 23:33N 44°42' E 037°49'1 1.1
2014-Dec-17 22:32N 44°43' E 037°49'0 0.0
2014-Dec-17 21:32N 44°43' E 037°49'0 0.0
2014-Dec-17 20:32N 44°43' E 037°49'0 0.0
2014-Dec-17 19:32N 44°43' E 037°49'0 0.0
2014-Dec-17 18:32N 44°43' E 037°49'0 0.0
2014-Dec-17 17:32N 44°43' E 037°49'0 0.0
2014-Dec-17 16:32N 44°43' E 037°49'0 0.0
2014-Dec-17 15:32N 44°43' E 037°49'0 0.0
2014-Dec-17 14:32N 44°43' E 037°49'0 0.0
2014-Dec-17 13:32N 44°43' E 037°49'0 0.0
2014-Dec-17 12:29N 44°43' E 037°49'0 0.0
2014-Dec-17 11:32N 44°43' E 037°49'0 0.0
2014-Dec-17 10:32N 44°43' E 037°49'0 0.0
2014-Dec-17 09:32N 44°43' E 037°49'0 0.0
2014-Dec-17 08:32N 44°43' E 037°49'0 0.0
2014-Dec-17 07:26N 44°43' E 037°49'0 0.0
2014-Dec-17 06:32N 44°43' E 037°49'0 0.0
2014-Dec-17 05:32N 44°43' E 037°49'0 0.0
2014-Dec-17 04:32N 44°43' E 037°49'0 0.0
2014-Dec-17 03:32N 44°43' E 037°49'0 0.0
2014-Dec-17 02:32N 44°43' E 037°49'0 0.0
2014-Dec-17 01:32N 44°43' E 037°49'0 0.0
2014-Dec-17 00:32N 44°43' E 037°49'0 0.0
2014-Dec-16 23:32N 44°43' E 037°49'0 0.0
2014-Dec-16 22:32N 44°43' E 037°49'0 0.0
2014-Dec-16 21:32N 44°43' E 037°49'0 0.0
2014-Dec-16 20:32N 44°43' E 037°49'0 0.0
2014-Dec-16 19:32N 44°43' E 037°49'0 0.0
2014-Dec-16 18:32N 44°43' E 037°49'0 0.0
2014-Dec-16 17:32N 44°43' E 037°49'0 0.0
2014-Dec-16 16:32N 44°43' E 037°49'0 0.0
2014-Dec-16 15:32N 44°43' E 037°49'0 0.0
2014-Dec-16 14:32N 44°43' E 037°49'0 0.0
2014-Dec-16 13:32N 44°43' E 037°49'0 0.5
2014-Dec-16 12:33N 44°43' E 037°48'7 7.1
2014-Dec-16 11:33N 44°36' E 037°52'7 7.0
2014-Dec-16 10:33N 44°31' E 037°47'1110.7
2014-Dec-16 09:33N 44°26' E 037°33'1514.9
2014-Dec-16 08:33N 44°19' E 037°15'10010.6
2014-Dec-15 23:08N 44°16' E 034°55'710.9
2014-Dec-15 22:31N 44°15' E 034°45'1010.9
2014-Dec-15 21:33N 44°15' E 034°31'1010.2
2014-Dec-15 20:33N 44°15' E 034°16'1010.0
2014-Dec-15 19:33N 44°15' E 034°02'190 4.9
2014-Dec-14 04:32N 46°36' E 031°01'9 9.4
2014-Dec-14 03:33N 46°27' E 030°57'1615.3
2014-Dec-14 02:30N 46°12' E 031°05'  

Dump ship's entire track history